LiveATC.Net - Listen to live air traffic control over the Internet!


ICAO: SBSP  IATA: CGH   Airport: Congonhas Airport
City: Sao Paulo
Country: Brazil   Continent: South America
SBSP METAR Weather: SBSP 281300Z 04008KT 8000 NSC 16/11 Q1029
SBSP Flight Activity (FlightAware)
SBSP Webcam: (Airport Webcams)
SBSP Approach
Feed Status: UP   Listeners: 1
Listen right in your browser - requires Flash (in browser, requires Flash)
Click here to listen with your own player (launches your MP3 player)
SBSP Approach Audio Archives
FacilityFrequency
Sao Paulo Approach (Final) 0100Z-0900Z129.750
Sao Paulo Approach (Final) 0900-0100Z119.050
Sao Paulo Approach (Final) 0900-0100Z133.850


NOTICE

Unauthorized use prohibited. See LiveATC.net Terms of Service


Find LiveATC Audio Streams


Airport/ARTCC Code

Frequency
(e.g., 124.400, 128.75)
Site-wide search

Browse LiveATC Feeds
LiveATC Coverage Map
Top 50 LiveATC Feeds
Bad Weather Areas

LiveATC FAQ
Offer a LiveATC Feed
Contact LiveATC.net
Press Inquiries

LiveATC on iPhone
LiveATC on Android

Windows Phone
Windows 8/10

LiveATC Mobile
(Mobile browser)

ATC Audio Archives
Interesting Recordings

LiveATC Forums


Home Page
About LiveATC.net
Make a Donation
LiveATC Store

Terms of Use
Privacy Policy

Canadian Air Freqs

AIRMETs/SIGMETs

FAA Airport Status
Nat'l Airspace Status
Arrival Demand Charts


Server Software By:
Icecast.org
Liquidsoap